sensor_id;sensor_type;location;lat;lon;timestamp;P1;durP1;ratioP1;P2;durP2;ratioP2
20080;SDS011;10200;49.232;9.222;2022-09-12T00:01:19;5.53;;;4.67;;
20080;SDS011;10200;49.232;9.222;2022-09-12T00:03:46;5.63;;;4.67;;
20080;SDS011;10200;49.232;9.222;2022-09-12T00:06:16;6.73;;;5.00;;
20080;SDS011;10200;49.232;9.222;2022-09-12T00:08:43;5.57;;;4.93;;
20080;SDS011;10200;49.232;9.222;2022-09-12T00:11:09;6.70;;;4.83;;
20080;SDS011;10200;49.232;9.222;2022-09-12T00:13:37;5.27;;;4.23;;
20080;SDS011;10200;49.232;9.222;2022-09-12T00:16:04;5.60;;;4.33;;
20080;SDS011;10200;49.232;9.222;2022-09-12T00:18:30;5.17;;;4.67;;
20080;SDS011;10200;49.232;9.222;2022-09-12T00:20:56;6.17;;;5.20;;
20080;SDS011;10200;49.232;9.222;2022-09-12T00:23:25;7.07;;;4.37;;
20080;SDS011;10200;49.232;9.222;2022-09-12T00:25:51;5.57;;;4.60;;
20080;SDS011;10200;49.232;9.222;2022-09-12T00:28:17;5.17;;;4.67;;
20080;SDS011;10200;49.232;9.222;2022-09-12T00:30:43;6.17;;;4.57;;
20080;SDS011;10200;49.232;9.222;2022-09-12T00:33:11;4.80;;;4.30;;
20080;SDS011;10200;49.232;9.222;2022-09-12T00:35:44;6.40;;;4.97;;
20080;SDS011;10200;49.232;9.222;2022-09-12T00:38:13;4.63;;;4.10;;
20080;SDS011;10200;49.232;9.222;2022-09-12T00:40:40;6.50;;;5.70;;
20080;SDS011;10200;49.232;9.222;2022-09-12T00:43:09;8.60;;;4.90;;
20080;SDS011;10200;49.232;9.222;2022-09-12T00:46:01;5.73;;;4.90;;
20080;SDS011;10200;49.232;9.222;2022-09-12T00:48:43;6.23;;;5.30;;
20080;SDS011;10200;49.232;9.222;2022-09-12T00:51:14;6.00;;;5.23;;
20080;SDS011;10200;49.232;9.222;2022-09-12T00:53:41;7.90;;;4.87;;
20080;SDS011;10200;49.232;9.222;2022-09-12T00:56:08;6.90;;;5.37;;
20080;SDS011;10200;49.232;9.222;2022-09-12T00:58:37;5.70;;;4.43;;
20080;SDS011;10200;49.232;9.222;2022-09-12T01:01:08;5.00;;;4.27;;
20080;SDS011;10200;49.232;9.222;2022-09-12T01:03:33;5.70;;;4.53;;
20080;SDS011;10200;49.232;9.222;2022-09-12T01:08:24;5.57;;;4.97;;
20080;SDS011;10200;49.232;9.222;2022-09-12T01:10:51;5.47;;;4.77;;
20080;SDS011;10200;49.232;9.222;2022-09-12T01:13:16;6.23;;;4.40;;
20080;SDS011;10200;49.232;9.222;2022-09-12T01:15:42;6.40;;;5.67;;
20080;SDS011;10200;49.232;9.222;2022-09-12T01:23:23;7.33;;;5.43;;
20080;SDS011;10200;49.232;9.222;2022-09-12T01:26:14;6.37;;;5.53;;
20080;SDS011;10200;49.232;9.222;2022-09-12T01:31:33;6.53;;;5.80;;
20080;SDS011;10200;49.232;9.222;2022-09-12T01:34:08;6.17;;;5.23;;
20080;SDS011;10200;49.232;9.222;2022-09-12T01:48:17;6.10;;;5.20;;
20080;SDS011;10200;49.232;9.222;2022-09-12T01:50:49;6.77;;;5.00;;
20080;SDS011;10200;49.232;9.222;2022-09-12T01:53:26;7.87;;;4.60;;
20080;SDS011;10200;49.232;9.222;2022-09-12T01:56:01;7.70;;;5.23;;
20080;SDS011;10200;49.232;9.222;2022-09-12T01:58:35;8.70;;;5.97;;
20080;SDS011;10200;49.232;9.222;2022-09-12T02:01:16;5.50;;;4.80;;
20080;SDS011;10200;49.232;9.222;2022-09-12T02:03:48;6.07;;;5.10;;
20080;SDS011;10200;49.232;9.222;2022-09-12T02:06:42;5.27;;;4.73;;
20080;SDS011;10200;49.232;9.222;2022-09-12T02:09:17;5.17;;;4.63;;
20080;SDS011;10200;49.232;9.222;2022-09-12T02:11:53;9.50;;;5.30;;
20080;SDS011;10200;49.232;9.222;2022-09-12T02:14:24;5.77;;;4.60;;
20080;SDS011;10200;49.232;9.222;2022-09-12T02:16:55;5.20;;;4.37;;
20080;SDS011;10200;49.232;9.222;2022-09-12T02:19:29;9.67;;;4.87;;
20080;SDS011;10200;49.232;9.222;2022-09-12T02:21:59;6.00;;;5.00;;
20080;SDS011;10200;49.232;9.222;2022-09-12T02:24:37;4.90;;;4.17;;
20080;SDS011;10200;49.232;9.222;2022-09-12T02:27:08;5.23;;;4.50;;
20080;SDS011;10200;49.232;9.222;2022-09-12T02:29:40;5.90;;;5.00;;
20080;SDS011;10200;49.232;9.222;2022-09-12T02:34:46;6.67;;;4.77;;
20080;SDS011;10200;49.232;9.222;2022-09-12T02:37:21;6.60;;;5.47;;
20080;SDS011;10200;49.232;9.222;2022-09-12T02:39:51;6.50;;;5.23;;
20080;SDS011;10200;49.232;9.222;2022-09-12T02:42:19;9.83;;;5.80;;
20080;SDS011;10200;49.232;9.222;2022-09-12T02:44:45;6.50;;;5.47;;
20080;SDS011;10200;49.232;9.222;2022-09-12T02:47:17;8.33;;;4.97;;
20080;SDS011;10200;49.232;9.222;2022-09-12T02:49:50;6.40;;;5.30;;
20080;SDS011;10200;49.232;9.222;2022-09-12T02:52:17;5.50;;;4.83;;
20080;SDS011;10200;49.232;9.222;2022-09-12T02:54:43;6.20;;;5.07;;
20080;SDS011;10200;49.232;9.222;2022-09-12T02:57:16;5.67;;;5.07;;
20080;SDS011;10200;49.232;9.222;2022-09-12T02:59:44;6.33;;;4.17;;
20080;SDS011;10200;49.232;9.222;2022-09-12T03:02:25;8.30;;;4.50;;
20080;SDS011;10200;49.232;9.222;2022-09-12T03:13:59;6.83;;;4.83;;
20080;SDS011;10200;49.232;9.222;2022-09-12T03:16:46;7.60;;;5.03;;
20080;SDS011;10200;49.232;9.222;2022-09-12T03:22:37;7.13;;;5.50;;
20080;SDS011;10200;49.232;9.222;2022-09-12T03:25:20;7.97;;;4.97;;
20080;SDS011;10200;49.232;9.222;2022-09-12T03:28:05;7.50;;;5.30;;
20080;SDS011;10200;49.232;9.222;2022-09-12T03:30:40;7.27;;;5.73;;
20080;SDS011;10200;49.232;9.222;2022-09-12T03:33:11;7.10;;;5.47;;
20080;SDS011;10200;49.232;9.222;2022-09-12T03:35:39;5.83;;;4.77;;
20080;SDS011;10200;49.232;9.222;2022-09-12T03:38:05;7.93;;;4.80;;
20080;SDS011;10200;49.232;9.222;2022-09-12T03:40:32;6.77;;;5.10;;
20080;SDS011;10200;49.232;9.222;2022-09-12T03:42:58;8.10;;;4.13;;
20080;SDS011;10200;49.232;9.222;2022-09-12T03:45:24;7.17;;;4.73;;
20080;SDS011;10200;49.232;9.222;2022-09-12T03:47:50;4.97;;;4.03;;
20080;SDS011;10200;49.232;9.222;2022-09-12T03:50:15;4.77;;;4.30;;
20080;SDS011;10200;49.232;9.222;2022-09-12T03:52:41;6.17;;;3.77;;
20080;SDS011;10200;49.232;9.222;2022-09-12T03:55:07;5.10;;;4.40;;
20080;SDS011;10200;49.232;9.222;2022-09-12T03:57:33;7.63;;;4.30;;
20080;SDS011;10200;49.232;9.222;2022-09-12T03:59:59;4.90;;;3.70;;
20080;SDS011;10200;49.232;9.222;2022-09-12T04:02:26;4.17;;;3.77;;
20080;SDS011;10200;49.232;9.222;2022-09-12T04:04:52;4.43;;;3.77;;
20080;SDS011;10200;49.232;9.222;2022-09-12T04:07:17;4.80;;;3.97;;
20080;SDS011;10200;49.232;9.222;2022-09-12T04:09:43;4.37;;;3.60;;
20080;SDS011;10200;49.232;9.222;2022-09-12T04:12:08;4.20;;;3.80;;
20080;SDS011;10200;49.232;9.222;2022-09-12T04:14:34;3.57;;;3.07;;
20080;SDS011;10200;49.232;9.222;2022-09-12T04:17:00;4.47;;;3.83;;
20080;SDS011;10200;49.232;9.222;2022-09-12T04:19:26;4.37;;;3.90;;
20080;SDS011;10200;49.232;9.222;2022-09-12T04:21:51;3.90;;;3.50;;
20080;SDS011;10200;49.232;9.222;2022-09-12T04:24:17;4.03;;;3.63;;
20080;SDS011;10200;49.232;9.222;2022-09-12T04:26:43;4.27;;;3.87;;
20080;SDS011;10200;49.232;9.222;2022-09-12T04:29:10;4.17;;;3.77;;
20080;SDS011;10200;49.232;9.222;2022-09-12T04:31:36;4.80;;;4.07;;
20080;SDS011;10200;49.232;9.222;2022-09-12T04:34:02;4.40;;;3.90;;
20080;SDS011;10200;49.232;9.222;2022-09-12T04:36:29;4.23;;;3.57;;
20080;SDS011;10200;49.232;9.222;2022-09-12T04:38:56;4.10;;;3.23;;
20080;SDS011;10200;49.232;9.222;2022-09-12T04:41:26;5.73;;;4.10;;
20080;SDS011;10200;49.232;9.222;2022-09-12T04:43:54;4.47;;;3.57;;
20080;SDS011;10200;49.232;9.222;2022-09-12T04:46:28;4.97;;;4.00;;
20080;SDS011;10200;49.232;9.222;2022-09-12T04:48:55;4.13;;;3.33;;
20080;SDS011;10200;49.232;9.222;2022-09-12T04:51:22;4.93;;;4.43;;
20080;SDS011;10200;49.232;9.222;2022-09-12T04:53:59;4.50;;;3.60;;
20080;SDS011;10200;49.232;9.222;2022-09-12T04:56:28;4.30;;;3.90;;
20080;SDS011;10200;49.232;9.222;2022-09-12T04:58:57;4.20;;;3.67;;
20080;SDS011;10200;49.232;9.222;2022-09-12T05:01:24;3.73;;;3.33;;
20080;SDS011;10200;49.232;9.222;2022-09-12T05:03:52;5.17;;;3.80;;
20080;SDS011;10200;49.232;9.222;2022-09-12T05:06:19;5.23;;;4.47;;
20080;SDS011;10200;49.232;9.222;2022-09-12T05:08:47;4.70;;;3.97;;
20080;SDS011;10200;49.232;9.222;2022-09-12T05:11:14;4.57;;;4.03;;
20080;SDS011;10200;49.232;9.222;2022-09-12T05:13:45;5.47;;;4.57;;
20080;SDS011;10200;49.232;9.222;2022-09-12T05:16:11;5.00;;;4.00;;
20080;SDS011;10200;49.232;9.222;2022-09-12T05:18:39;3.80;;;3.30;;
20080;SDS011;10200;49.232;9.222;2022-09-12T05:21:06;4.20;;;3.63;;
20080;SDS011;10200;49.232;9.222;2022-09-12T05:23:34;4.83;;;3.77;;
20080;SDS011;10200;49.232;9.222;2022-09-12T05:26:01;5.53;;;4.20;;
20080;SDS011;10200;49.232;9.222;2022-09-12T05:28:29;4.93;;;3.77;;
20080;SDS011;10200;49.232;9.222;2022-09-12T05:33:26;6.00;;;4.30;;
20080;SDS011;10200;49.232;9.222;2022-09-12T05:35:51;4.77;;;3.70;;
20080;SDS011;10200;49.232;9.222;2022-09-12T05:38:17;3.97;;;3.53;;
20080;SDS011;10200;49.232;9.222;2022-09-12T05:40:43;3.97;;;3.57;;
20080;SDS011;10200;49.232;9.222;2022-09-12T05:43:08;4.73;;;3.70;;
20080;SDS011;10200;49.232;9.222;2022-09-12T05:45:36;5.10;;;3.70;;
20080;SDS011;10200;49.232;9.222;2022-09-12T05:48:02;5.13;;;3.97;;
20080;SDS011;10200;49.232;9.222;2022-09-12T05:50:28;3.72;;;3.13;;
20080;SDS011;10200;49.232;9.222;2022-09-12T05:52:53;3.05;;;2.85;;
20080;SDS011;10200;49.232;9.222;2022-09-12T05:55:20;3.42;;;3.13;;
20080;SDS011;10200;49.232;9.222;2022-09-12T05:57:47;2.60;;;2.40;;
20080;SDS011;10200;49.232;9.222;2022-09-12T06:00:13;3.25;;;2.85;;
20080;SDS011;10200;49.232;9.222;2022-09-12T06:02:39;2.75;;;2.47;;
20080;SDS011;10200;49.232;9.222;2022-09-12T06:05:05;3.08;;;2.70;;
20080;SDS011;10200;49.232;9.222;2022-09-12T06:07:30;4.20;;;3.05;;
20080;SDS011;10200;49.232;9.222;2022-09-12T06:09:56;4.45;;;3.38;;
20080;SDS011;10200;49.232;9.222;2022-09-12T06:12:23;4.05;;;3.67;;
20080;SDS011;10200;49.232;9.222;2022-09-12T06:14:50;4.07;;;3.67;;
20080;SDS011;10200;49.232;9.222;2022-09-12T06:17:16;3.60;;;3.30;;
20080;SDS011;10200;49.232;9.222;2022-09-12T06:19:42;3.67;;;3.38;;
20080;SDS011;10200;49.232;9.222;2022-09-12T06:22:09;4.25;;;3.85;;
20080;SDS011;10200;49.232;9.222;2022-09-12T06:24:35;4.72;;;3.42;;
20080;SDS011;10200;49.232;9.222;2022-09-12T06:27:01;4.30;;;3.80;;
20080;SDS011;10200;49.232;9.222;2022-09-12T06:29:26;3.90;;;3.50;;
20080;SDS011;10200;49.232;9.222;2022-09-12T06:31:52;4.18;;;3.53;;
20080;SDS011;10200;49.232;9.222;2022-09-12T06:34:18;3.80;;;3.45;;
20080;SDS011;10200;49.232;9.222;2022-09-12T06:36:45;4.35;;;3.95;;
20080;SDS011;10200;49.232;9.222;2022-09-12T06:39:13;4.10;;;3.70;;
20080;SDS011;10200;49.232;9.222;2022-09-12T06:41:40;4.28;;;3.92;;
20080;SDS011;10200;49.232;9.222;2022-09-12T06:44:06;4.88;;;4.38;;
20080;SDS011;10200;49.232;9.222;2022-09-12T06:46:32;4.15;;;3.75;;
20080;SDS011;10200;49.232;9.222;2022-09-12T06:48:58;4.80;;;4.30;;
20080;SDS011;10200;49.232;9.222;2022-09-12T06:51:24;5.93;;;3.80;;
20080;SDS011;10200;49.232;9.222;2022-09-12T06:53:53;5.57;;;5.07;;
20080;SDS011;10200;49.232;9.222;2022-09-12T06:56:20;6.50;;;5.30;;
20080;SDS011;10200;49.232;9.222;2022-09-12T06:58:48;5.40;;;4.90;;
20080;SDS011;10200;49.232;9.222;2022-09-12T07:01:16;4.78;;;4.15;;
20080;SDS011;10200;49.232;9.222;2022-09-12T07:03:46;5.35;;;4.85;;
20080;SDS011;10200;49.232;9.222;2022-09-12T07:06:13;6.15;;;5.35;;
20080;SDS011;10200;49.232;9.222;2022-09-12T07:08:40;6.15;;;4.90;;
20080;SDS011;10200;49.232;9.222;2022-09-12T07:11:07;9.90;;;5.68;;
20080;SDS011;10200;49.232;9.222;2022-09-12T07:13:37;7.05;;;5.55;;
20080;SDS011;10200;49.232;9.222;2022-09-12T07:16:06;5.13;;;4.57;;
20080;SDS011;10200;49.232;9.222;2022-09-12T07:18:34;6.30;;;5.07;;
20080;SDS011;10200;49.232;9.222;2022-09-12T07:21:02;6.32;;;5.43;;
20080;SDS011;10200;49.232;9.222;2022-09-12T07:23:29;6.28;;;5.00;;
20080;SDS011;10200;49.232;9.222;2022-09-12T07:25:55;5.80;;;5.22;;
20080;SDS011;10200;49.232;9.222;2022-09-12T07:28:22;5.63;;;5.00;;
20080;SDS011;10200;49.232;9.222;2022-09-12T07:30:49;6.10;;;5.50;;
20080;SDS011;10200;49.232;9.222;2022-09-12T07:33:15;7.22;;;4.95;;
20080;SDS011;10200;49.232;9.222;2022-09-12T07:35:41;6.25;;;5.25;;
20080;SDS011;10200;49.232;9.222;2022-09-12T07:38:07;7.10;;;5.47;;
20080;SDS011;10200;49.232;9.222;2022-09-12T07:40:33;5.90;;;4.97;;
20080;SDS011;10200;49.232;9.222;2022-09-12T07:42:58;5.82;;;5.22;;
20080;SDS011;10200;49.232;9.222;2022-09-12T07:45:24;5.93;;;5.28;;
20080;SDS011;10200;49.232;9.222;2022-09-12T07:47:52;5.68;;;5.07;;
20080;SDS011;10200;49.232;9.222;2022-09-12T07:50:18;5.78;;;5.18;;
20080;SDS011;10200;49.232;9.222;2022-09-12T07:52:44;7.40;;;5.45;;
20080;SDS011;10200;49.232;9.222;2022-09-12T07:55:10;5.40;;;4.90;;
20080;SDS011;10200;49.232;9.222;2022-09-12T07:57:35;7.75;;;5.25;;
20080;SDS011;10200;49.232;9.222;2022-09-12T08:00:02;5.32;;;4.40;;
20080;SDS011;10200;49.232;9.222;2022-09-12T08:02:29;5.68;;;5.10;;
20080;SDS011;10200;49.232;9.222;2022-09-12T08:04:55;5.60;;;4.65;;
20080;SDS011;10200;49.232;9.222;2022-09-12T08:07:21;6.35;;;5.55;;
20080;SDS011;10200;49.232;9.222;2022-09-12T08:09:46;6.47;;;5.20;;
20080;SDS011;10200;49.232;9.222;2022-09-12T08:12:13;7.18;;;5.63;;
20080;SDS011;10200;49.232;9.222;2022-09-12T08:14:40;6.53;;;5.88;;
20080;SDS011;10200;49.232;9.222;2022-09-12T08:17:05;5.53;;;4.93;;
20080;SDS011;10200;49.232;9.222;2022-09-12T08:19:31;5.35;;;4.85;;
20080;SDS011;10200;49.232;9.222;2022-09-12T08:21:57;5.60;;;5.00;;
20080;SDS011;10200;49.232;9.222;2022-09-12T08:24:22;5.32;;;4.80;;
20080;SDS011;10200;49.232;9.222;2022-09-12T08:26:49;5.80;;;5.13;;
20080;SDS011;10200;49.232;9.222;2022-09-12T08:29:15;6.35;;;4.75;;
20080;SDS011;10200;49.232;9.222;2022-09-12T08:31:41;5.95;;;4.50;;
20080;SDS011;10200;49.232;9.222;2022-09-12T08:34:06;5.90;;;5.28;;
20080;SDS011;10200;49.232;9.222;2022-09-12T08:36:33;5.85;;;5.25;;
20080;SDS011;10200;49.232;9.222;2022-09-12T08:39:00;5.82;;;5.25;;
20080;SDS011;10200;49.232;9.222;2022-09-12T08:49:50;6.47;;;5.13;;
20080;SDS011;10200;49.232;9.222;2022-09-12T08:52:19;4.88;;;4.38;;
20080;SDS011;10200;49.232;9.222;2022-09-12T08:54:58;4.80;;;4.40;;
20080;SDS011;10200;49.232;9.222;2022-09-12T08:57:26;4.53;;;4.13;;
20080;SDS011;10200;49.232;9.222;2022-09-12T08:59:51;6.25;;;5.03;;
20080;SDS011;10200;49.232;9.222;2022-09-12T09:05:39;5.82;;;4.05;;
20080;SDS011;10200;49.232;9.222;2022-09-12T09:14:02;4.78;;;4.35;;
20080;SDS011;10200;49.232;9.222;2022-09-12T09:17:08;4.32;;;3.92;;
20080;SDS011;10200;49.232;9.222;2022-09-12T09:19:36;4.22;;;3.83;;
20080;SDS011;10200;49.232;9.222;2022-09-12T09:22:17;5.00;;;3.85;;
20080;SDS011;10200;49.232;9.222;2022-09-12T09:25:13;7.30;;;4.57;;
20080;SDS011;10200;49.232;9.222;2022-09-12T09:28:33;4.75;;;4.28;;
20080;SDS011;10200;49.232;9.222;2022-09-12T09:30:59;4.22;;;3.83;;
20080;SDS011;10200;49.232;9.222;2022-09-12T09:33:27;4.30;;;3.90;;
20080;SDS011;10200;49.232;9.222;2022-09-12T09:36:00;4.63;;;3.47;;
20080;SDS011;10200;49.232;9.222;2022-09-12T09:39:14;5.03;;;3.58;;
20080;SDS011;10200;49.232;9.222;2022-09-12T09:42:26;3.50;;;3.20;;
20080;SDS011;10200;49.232;9.222;2022-09-12T09:45:12;3.05;;;2.72;;
20080;SDS011;10200;49.232;9.222;2022-09-12T09:47:40;3.63;;;3.33;;
20080;SDS011;10200;49.232;9.222;2022-09-12T09:50:11;3.38;;;3.08;;
20080;SDS011;10200;49.232;9.222;2022-09-12T09:52:40;3.50;;;2.88;;
20080;SDS011;10200;49.232;9.222;2022-09-12T09:55:09;3.35;;;3.05;;
20080;SDS011;10200;49.232;9.222;2022-09-12T09:57:40;3.33;;;3.03;;
20080;SDS011;10200;49.232;9.222;2022-09-12T10:00:24;5.55;;;3.17;;
20080;SDS011;10200;49.232;9.222;2022-09-12T10:05:43;4.47;;;3.42;;
20080;SDS011;10200;49.232;9.222;2022-09-12T10:11:16;3.58;;;3.28;;
20080;SDS011;10200;49.232;9.222;2022-09-12T10:16:25;3.03;;;2.80;;
20080;SDS011;10200;49.232;9.222;2022-09-12T10:18:56;3.30;;;3.00;;
20080;SDS011;10200;49.232;9.222;2022-09-12T10:24:22;2.83;;;2.50;;
20080;SDS011;10200;49.232;9.222;2022-09-12T10:29:43;2.88;;;2.67;;
20080;SDS011;10200;49.232;9.222;2022-09-12T10:32:20;2.65;;;2.45;;
20080;SDS011;10200;49.232;9.222;2022-09-12T10:35:15;3.22;;;2.53;;
20080;SDS011;10200;49.232;9.222;2022-09-12T10:37:48;3.13;;;2.60;;
20080;SDS011;10200;49.232;9.222;2022-09-12T10:40:22;2.90;;;2.47;;
20080;SDS011;10200;49.232;9.222;2022-09-12T10:42:56;2.90;;;2.60;;
20080;SDS011;10200;49.232;9.222;2022-09-12T10:45:31;2.95;;;2.75;;
20080;SDS011;10200;49.232;9.222;2022-09-12T10:48:00;3.05;;;2.78;;
20080;SDS011;10200;49.232;9.222;2022-09-12T10:50:29;2.40;;;2.15;;
20080;SDS011;10200;49.232;9.222;2022-09-12T10:53:19;3.70;;;2.55;;
20080;SDS011;10200;49.232;9.222;2022-09-12T11:06:32;3.00;;;2.70;;
20080;SDS011;10200;49.232;9.222;2022-09-12T11:12:09;2.90;;;2.60;;
20080;SDS011;10200;49.232;9.222;2022-09-12T11:22:55;4.05;;;2.53;;
20080;SDS011;10200;49.232;9.222;2022-09-12T11:25:56;2.42;;;2.15;;
20080;SDS011;10200;49.232;9.222;2022-09-12T11:31:02;2.72;;;2.53;;
20080;SDS011;10200;49.232;9.222;2022-09-12T11:33:50;2.78;;;2.40;;
20080;SDS011;10200;49.232;9.222;2022-09-12T11:36:24;2.65;;;2.45;;
20080;SDS011;10200;49.232;9.222;2022-09-12T11:41:50;3.25;;;2.55;;
20080;SDS011;10200;49.232;9.222;2022-09-12T11:44:22;2.58;;;2.38;;
20080;SDS011;10200;49.232;9.222;2022-09-12T11:46:57;2.67;;;2.47;;
20080;SDS011;10200;49.232;9.222;2022-09-12T11:49:27;2.67;;;2.47;;
20080;SDS011;10200;49.232;9.222;2022-09-12T11:54:54;2.40;;;2.25;;
20080;SDS011;10200;49.232;9.222;2022-09-12T11:57:28;2.60;;;2.40;;
20080;SDS011;10200;49.232;9.222;2022-09-12T12:02:40;2.25;;;2.05;;
20080;SDS011;10200;49.232;9.222;2022-09-12T12:07:58;3.15;;;2.25;;
20080;SDS011;10200;49.232;9.222;2022-09-12T12:10:41;3.40;;;2.55;;
20080;SDS011;10200;49.232;9.222;2022-09-12T12:13:16;3.30;;;1.95;;
20080;SDS011;10200;49.232;9.222;2022-09-12T12:15:50;2.10;;;1.90;;
20080;SDS011;10200;49.232;9.222;2022-09-12T12:18:21;3.63;;;2.30;;
20080;SDS011;10200;49.232;9.222;2022-09-12T12:20:52;2.42;;;2.05;;
20080;SDS011;10200;49.232;9.222;2022-09-12T12:23:30;2.63;;;2.40;;
20080;SDS011;10200;49.232;9.222;2022-09-12T12:25:58;2.50;;;2.30;;
20080;SDS011;10200;49.232;9.222;2022-09-12T12:28:54;2.25;;;2.05;;
20080;SDS011;10200;49.232;9.222;2022-09-12T12:31:23;3.40;;;2.53;;
20080;SDS011;10200;49.232;9.222;2022-09-12T12:39:08;2.50;;;2.30;;
20080;SDS011;10200;49.232;9.222;2022-09-12T12:41:58;2.50;;;2.20;;
20080;SDS011;10200;49.232;9.222;2022-09-12T12:49:50;2.17;;;2.08;;
20080;SDS011;10200;49.232;9.222;2022-09-12T12:52:22;2.25;;;2.05;;
20080;SDS011;10200;49.232;9.222;2022-09-12T12:54:54;2.30;;;2.00;;
20080;SDS011;10200;49.232;9.222;2022-09-12T12:57:31;2.25;;;2.05;;
20080;SDS011;10200;49.232;9.222;2022-09-12T13:05:29;1.75;;;1.65;;
20080;SDS011;10200;49.232;9.222;2022-09-12T13:08:09;3.95;;;2.13;;
20080;SDS011;10200;49.232;9.222;2022-09-12T13:11:00;2.50;;;2.30;;
20080;SDS011;10200;49.232;9.222;2022-09-12T13:13:39;2.25;;;1.95;;
20080;SDS011;10200;49.232;9.222;2022-09-12T13:19:04;2.30;;;2.10;;
20080;SDS011;10200;49.232;9.222;2022-09-12T13:21:35;2.10;;;1.90;;
20080;SDS011;10200;49.232;9.222;2022-09-12T13:24:02;2.17;;;1.83;;
20080;SDS011;10200;49.232;9.222;2022-09-12T13:26:40;2.38;;;2.10;;
20080;SDS011;10200;49.232;9.222;2022-09-12T13:29:12;3.28;;;2.05;;
20080;SDS011;10200;49.232;9.222;2022-09-12T13:31:47;1.85;;;1.75;;
20080;SDS011;10200;49.232;9.222;2022-09-12T13:34:21;2.25;;;2.03;;
20080;SDS011;10200;49.232;9.222;2022-09-12T13:36:53;2.03;;;1.90;;
20080;SDS011;10200;49.232;9.222;2022-09-12T13:39:23;1.70;;;1.60;;
20080;SDS011;10200;49.232;9.222;2022-09-12T13:44:50;1.90;;;1.80;;
20080;SDS011;10200;49.232;9.222;2022-09-12T13:47:39;1.95;;;1.75;;
20080;SDS011;10200;49.232;9.222;2022-09-12T13:50:07;2.63;;;2.10;;
20080;SDS011;10200;49.232;9.222;2022-09-12T13:53:05;1.92;;;1.83;;
20080;SDS011;10200;49.232;9.222;2022-09-12T13:55:37;1.90;;;1.80;;
20080;SDS011;10200;49.232;9.222;2022-09-12T13:58:06;2.13;;;1.80;;
20080;SDS011;10200;49.232;9.222;2022-09-12T14:03:50;3.75;;;2.25;;
20080;SDS011;10200;49.232;9.222;2022-09-12T14:06:47;1.75;;;1.52;;
20080;SDS011;10200;49.232;9.222;2022-09-12T14:12:18;2.40;;;1.90;;
20080;SDS011;10200;49.232;9.222;2022-09-12T14:14:56;2.38;;;1.90;;
20080;SDS011;10200;49.232;9.222;2022-09-12T14:19:55;1.65;;;1.55;;
20080;SDS011;10200;49.232;9.222;2022-09-12T14:22:30;2.58;;;1.85;;
20080;SDS011;10200;49.232;9.222;2022-09-12T14:24:58;1.77;;;1.67;;
20080;SDS011;10200;49.232;9.222;2022-09-12T14:27:28;2.00;;;1.90;;
20080;SDS011;10200;49.232;9.222;2022-09-12T14:30:04;3.38;;;1.67;;
20080;SDS011;10200;49.232;9.222;2022-09-12T14:32:33;1.70;;;1.60;;
20080;SDS011;10200;49.232;9.222;2022-09-12T14:35:06;2.85;;;1.45;;
20080;SDS011;10200;49.232;9.222;2022-09-12T14:37:34;1.70;;;1.50;;
20080;SDS011;10200;49.232;9.222;2022-09-12T14:40:00;1.65;;;1.55;;
20080;SDS011;10200;49.232;9.222;2022-09-12T14:42:27;1.73;;;1.63;;
20080;SDS011;10200;49.232;9.222;2022-09-12T14:45:00;1.90;;;1.70;;
20080;SDS011;10200;49.232;9.222;2022-09-12T14:47:31;2.05;;;1.30;;
20080;SDS011;10200;49.232;9.222;2022-09-12T14:50:02;2.05;;;1.73;;
20080;SDS011;10200;49.232;9.222;2022-09-12T14:52:29;1.92;;;1.70;;
20080;SDS011;10200;49.232;9.222;2022-09-12T14:55:28;1.85;;;1.73;;
20080;SDS011;10200;49.232;9.222;2022-09-12T14:58:05;1.80;;;1.70;;
20080;SDS011;10200;49.232;9.222;2022-09-12T15:06:17;2.08;;;1.88;;
20080;SDS011;10200;49.232;9.222;2022-09-12T15:08:44;1.40;;;1.30;;
20080;SDS011;10200;49.232;9.222;2022-09-12T15:11:10;1.58;;;1.48;;
20080;SDS011;10200;49.232;9.222;2022-09-12T15:13:39;1.50;;;1.40;;
20080;SDS011;10200;49.232;9.222;2022-09-12T15:16:06;1.63;;;1.50;;
20080;SDS011;10200;49.232;9.222;2022-09-12T15:18:34;1.73;;;1.38;;
20080;SDS011;10200;49.232;9.222;2022-09-12T15:21:00;1.98;;;1.65;;
20080;SDS011;10200;49.232;9.222;2022-09-12T15:23:29;2.38;;;1.65;;
20080;SDS011;10200;49.232;9.222;2022-09-12T15:25:56;1.85;;;1.75;;
20080;SDS011;10200;49.232;9.222;2022-09-12T15:28:22;2.17;;;1.67;;
20080;SDS011;10200;49.232;9.222;2022-09-12T15:30:48;1.20;;;1.20;;
20080;SDS011;10200;49.232;9.222;2022-09-12T15:33:19;1.65;;;1.40;;
20080;SDS011;10200;49.232;9.222;2022-09-12T15:35:49;1.63;;;1.50;;
20080;SDS011;10200;49.232;9.222;2022-09-12T15:38:16;2.10;;;1.90;;
20080;SDS011;10200;49.232;9.222;2022-09-12T15:40:42;1.85;;;1.75;;
20080;SDS011;10200;49.232;9.222;2022-09-12T15:43:09;1.98;;;1.55;;
20080;SDS011;10200;49.232;9.222;2022-09-12T15:45:37;1.92;;;1.67;;
20080;SDS011;10200;49.232;9.222;2022-09-12T15:48:02;1.60;;;1.50;;
20080;SDS011;10200;49.232;9.222;2022-09-12T15:50:28;2.20;;;1.48;;
20080;SDS011;10200;49.232;9.222;2022-09-12T15:52:54;2.00;;;1.80;;
20080;SDS011;10200;49.232;9.222;2022-09-12T15:55:25;1.58;;;1.48;;
20080;SDS011;10200;49.232;9.222;2022-09-12T15:57:53;1.90;;;1.80;;
20080;SDS011;10200;49.232;9.222;2022-09-12T16:00:19;1.85;;;1.75;;
20080;SDS011;10200;49.232;9.222;2022-09-12T16:02:45;1.52;;;1.42;;
20080;SDS011;10200;49.232;9.222;2022-09-12T16:05:14;1.77;;;1.67;;
20080;SDS011;10200;49.232;9.222;2022-09-12T16:07:42;2.10;;;1.90;;
20080;SDS011;10200;49.232;9.222;2022-09-12T16:10:15;1.88;;;1.70;;
20080;SDS011;10200;49.232;9.222;2022-09-12T16:12:42;1.30;;;1.20;;
20080;SDS011;10200;49.232;9.222;2022-09-12T16:15:13;2.83;;;1.70;;
20080;SDS011;10200;49.232;9.222;2022-09-12T16:17:41;3.75;;;1.50;;
20080;SDS011;10200;49.232;9.222;2022-09-12T16:20:06;3.22;;;2.05;;
20080;SDS011;10200;49.232;9.222;2022-09-12T16:22:32;1.58;;;1.48;;
20080;SDS011;10200;49.232;9.222;2022-09-12T16:24:58;2.00;;;1.80;;
20080;SDS011;10200;49.232;9.222;2022-09-12T16:27:23;1.60;;;1.50;;
20080;SDS011;10200;49.232;9.222;2022-09-12T16:29:49;1.55;;;1.35;;
20080;SDS011;10200;49.232;9.222;2022-09-12T16:32:16;1.38;;;1.27;;
20080;SDS011;10200;49.232;9.222;2022-09-12T16:34:41;1.80;;;1.70;;
20080;SDS011;10200;49.232;9.222;2022-09-12T16:37:07;1.88;;;1.70;;
20080;SDS011;10200;49.232;9.222;2022-09-12T16:39:33;1.35;;;1.25;;
20080;SDS011;10200;49.232;9.222;2022-09-12T16:41:59;1.50;;;1.40;;
20080;SDS011;10200;49.232;9.222;2022-09-12T16:44:24;2.83;;;1.92;;
20080;SDS011;10200;49.232;9.222;2022-09-12T16:46:50;1.52;;;1.42;;
20080;SDS011;10200;49.232;9.222;2022-09-12T16:49:15;1.98;;;1.70;;
20080;SDS011;10200;49.232;9.222;2022-09-12T16:51:41;2.60;;;1.52;;
20080;SDS011;10200;49.232;9.222;2022-09-12T16:54:11;1.45;;;1.33;;
20080;SDS011;10200;49.232;9.222;2022-09-12T16:56:40;2.97;;;1.73;;
20080;SDS011;10200;49.232;9.222;2022-09-12T16:59:06;1.67;;;1.45;;
20080;SDS011;10200;49.232;9.222;2022-09-12T17:01:33;1.90;;;1.70;;
20080;SDS011;10200;49.232;9.222;2022-09-12T17:03:59;1.60;;;1.50;;
20080;SDS011;10200;49.232;9.222;2022-09-12T17:06:26;1.60;;;1.50;;
20080;SDS011;10200;49.232;9.222;2022-09-12T17:08:52;1.40;;;1.30;;
20080;SDS011;10200;49.232;9.222;2022-09-12T17:11:20;2.03;;;1.60;;
20080;SDS011;10200;49.232;9.222;2022-09-12T17:13:47;2.10;;;1.30;;
20080;SDS011;10200;49.232;9.222;2022-09-12T17:16:13;1.65;;;1.55;;
20080;SDS011;10200;49.232;9.222;2022-09-12T17:18:39;2.28;;;1.65;;
20080;SDS011;10200;49.232;9.222;2022-09-12T17:21:06;2.17;;;1.70;;
20080;SDS011;10200;49.232;9.222;2022-09-12T17:23:32;3.72;;;1.75;;
20080;SDS011;10200;49.232;9.222;2022-09-12T17:25:58;2.08;;;1.65;;
20080;SDS011;10200;49.232;9.222;2022-09-12T17:28:24;1.77;;;1.67;;
20080;SDS011;10200;49.232;9.222;2022-09-12T17:30:53;2.17;;;1.95;;